Peden, North Carolina
Current Conditions -  °F | °C
As of 11:15 PM on Tuesday 27 Jan 2015 (Local Time) from KGEV Reporting Station
Clear Clear  
Wind Chill:   Ceiling: Unl
Heat Index: 22°   Visibility: 10mi
Dew Point:   Wind: 23mph
Humidity: 49%   Direction: 320°NW
Pressure: 29.9"   Gusts: 31mph
Location:  36.4835°N, 81.3122°W
Report Text: KGEV 280415Z AUTO 32020G27KT 10SM CLR M06/M15 A2990 RMK AO2 T10581149
Loading
Personal Weather Stations






























Interactive Weather Map New forecast layout! Learn more

10-Day Weather Forecast

Advertisements
Track Severe Weather on mobile